GABS/BKO METAR and TAF weather

Enter ICAO airport designator
Station Type Date Time Source
GABS METAR 2021/10/24 21:00 UTC NOAA

GABS 242100Z 20004KT 150V250 9999 FEW020 27/22 Q1015 NOSIG


Station Type Date Time Source
GABS Decoded METAR 2021/10/24 21:00 UTC NOAA

Bamako / Senou, Mali (GABS) 12-32N 007-57W 381M
Oct 24, 2021 - 05:00 PM EDT / 2021.10.24 2100 UTC
Wind: from the SSW (200 degrees) at 5 MPH (4 KT) (direction variable):0
Visibility: greater than 7 mile(s):0
Sky conditions: mostly clear
Temperature: 80 F (27 C)
Dew Point: 71 F (22 C)
Relative Humidity: 74%
Pressure (altimeter): 29.97 in. Hg (1015 hPa)
ob: GABS 242100Z 20004KT 150V250 9999 FEW020 27/22 Q1015 NOSIG
cycle: 21

Station Type Date Time Source
GABS TAF 2021/10/24 18:57 UTC NOAA

TAF TAF GABS 241700Z 2418/2524 VRB04KT 9999 FEW030
TEMPO 2418/2422 VRB16G30KT 4000 TSRA SCT030 FEW033CB PROB40
TEMPO 2604/2610 VRB20G35KT 3000 TSRA SCT030 FEW033CB

Example: see airport list